Time;durP1;ratioP1;P1;durP2;ratioP2;P2;SDS_P1;SDS_P2;PMS_P1;PMS_P2;Temp;Humidity;BMP_temperature;BMP_pressure;BME280_temperature;BME280_humidity;BME280_pressure;Samples;Min_cycle;Max_cycle;Signal;HPM_P1;HPM_P2
2022/05/15 00:01:29;;;;;;;;;8.00;8.00;;;;;19.26;41.72;101400.78;5039823;28;45470;-74
2022/05/15 00:03:54;;;;;;;;;6.75;6.75;;;;;19.28;41.95;101398.06;5040282;28;46349;-73
2022/05/15 00:06:19;;;;;;;;;7.50;6.00;;;;;19.18;41.73;101368.69;5040842;28;45300;-75
2022/05/15 00:08:45;;;;;;;;;12.00;8.25;;;;;19.31;42.14;101393.47;5040507;28;45680;-74
2022/05/15 00:11:13;;;;;;;;;12.25;8.50;;;;;19.26;41.71;101377.06;5040050;28;45232;-75
2022/05/15 00:13:40;;;;;;;;;8.00;8.00;;;;;19.30;41.78;101375.09;5053189;28;45288;-78
2022/05/15 00:16:06;;;;;;;;;9.25;7.75;;;;;19.28;42.10;101374.34;5039736;28;45370;-78
2022/05/15 00:18:32;;;;;;;;;8.50;8.50;;;;;19.29;41.94;101371.63;5038812;28;45369;-80
2022/05/15 00:20:57;;;;;;;;;11.50;7.75;;;;;19.30;42.09;101377.75;5037677;28;45390;-76
2022/05/15 00:23:25;;;;;;;;;9.00;7.50;;;;;19.26;42.19;101371.78;5040164;28;45856;-76
2022/05/15 00:25:51;;;;;;;;;8.50;7.00;;;;;19.26;42.19;101360.41;5039823;28;45665;-80
2022/05/15 00:28:17;;;;;;;;;11.25;7.50;;;;;19.26;42.52;101365.66;5038825;28;45509;-75
2022/05/15 00:30:43;;;;;;;;;12.00;9.00;;;;;19.26;42.70;101365.66;5039910;28;45523;-76
2022/05/15 00:33:09;;;;;;;;;11.75;7.50;;;;;19.22;42.56;101372.91;5039581;28;45438;-77
2022/05/15 00:35:35;;;;;;;;;8.00;8.00;;;;;19.17;42.28;101360.88;5039770;28;45248;-75
2022/05/15 00:38:06;;;;;;;;;10.00;8.00;;;;;19.15;42.46;101356.53;5038379;28;45686;-75
2022/05/15 00:40:32;;;;;;;;;8.75;8.75;;;;;19.17;42.67;101356.44;5037695;28;45422;-75
2022/05/15 00:42:58;;;;;;;;;14.25;10.00;;;;;19.12;42.93;101348.81;5036468;28;47082;-75
2022/05/15 00:45:23;;;;;;;;;9.75;7.25;;;;;19.13;42.84;101354.91;5039547;28;45529;-76
2022/05/15 00:47:50;;;;;;;;;9.00;7.75;;;;;19.10;42.84;101361.22;5036484;28;45527;-75
2022/05/15 00:50:23;;;;;;;;;13.00;10.50;;;;;19.10;43.23;101358.56;5039764;28;45526;-74
2022/05/15 00:52:53;;;;;;;;;8.50;8.50;;;;;19.08;43.09;101349.91;5042984;28;45513;-76
2022/05/15 00:55:32;;;;;;;;;8.00;7.50;;;;;19.04;43.27;101352.78;5035437;28;47028;-76
2022/05/15 00:58:05;;;;;;;;;8.00;7.50;;;;;19.03;43.60;101348.44;5039109;28;45446;-74
2022/05/15 01:00:33;;;;;;;;;13.00;9.00;;;;;18.98;43.52;101340.78;5038889;28;45407;-76
2022/05/15 01:03:12;;;;;;;;;9.25;8.50;;;;;18.95;43.48;101350.63;5038793;28;46389;-76
2022/05/15 01:05:42;;;;;;;;;12.25;9.00;;;;;18.90;44.15;101339.50;5039646;28;45655;-75
2022/05/15 01:08:08;;;;;;;;;7.00;7.00;;;;;18.84;43.77;101327.50;5039861;28;45322;-77
2022/05/15 01:10:36;;;;;;;;;10.25;9.00;;;;;18.79;44.58;101335.63;5039201;28;45449;-75
2022/05/15 01:13:03;;;;;;;;;12.00;9.00;;;;;18.76;44.55;101329.66;5039119;28;46411;-73
2022/05/15 01:15:29;;;;;;;;;11.00;8.00;;;;;18.73;44.36;101332.47;5039079;28;45469;-74
2022/05/15 01:17:54;;;;;;;;;8.00;6.75;;;;;18.71;44.32;101339.59;5039578;28;45290;-73
2022/05/15 01:20:24;;;;;;;;;7.75;7.00;;;;;18.71;44.34;101329.91;5039028;28;45478;-74
2022/05/15 01:22:50;;;;;;;;;12.25;8.50;;;;;18.70;45.42;101336.09;5039319;28;45538;-74
2022/05/15 01:25:18;;;;;;;;;13.00;11.75;;;;;18.67;44.73;101332.78;5055010;28;45417;-75
2022/05/15 01:27:52;;;;;;;;;18.25;14.25;;;;;18.64;44.97;101332.94;5043094;28;45331;-76
2022/05/15 01:30:17;;;;;;;;;13.75;11.00;;;;;18.57;45.96;101328.88;5043194;28;45332;-75
2022/05/15 01:32:42;;;;;;;;;12.50;10.75;;;;;18.50;45.38;101325.72;5041246;28;46836;-76
2022/05/15 01:35:08;;;;;;;;;10.75;10.25;;;;;18.45;46.00;101330.38;5041740;28;45514;-77
2022/05/15 01:37:33;;;;;;;;;11.00;11.00;;;;;18.40;45.84;101322.69;5042824;28;45251;-75
2022/05/15 01:39:59;;;;;;;;;11.50;10.00;;;;;18.38;45.98;101323.69;5042713;28;45371;-76
2022/05/15 01:42:24;;;;;;;;;13.25;12.75;;;;;18.37;45.83;101317.59;5042546;28;45483;-75
2022/05/15 01:44:50;;;;;;;;;12.00;10.25;;;;;18.30;45.75;101316.19;5042376;28;45371;-75
2022/05/15 01:47:16;;;;;;;;;18.50;14.75;;;;;18.32;46.14;101319.59;5042148;28;45252;-76
2022/05/15 01:49:41;;;;;;;;;21.50;18.25;;;;;18.28;46.16;101315.44;5041646;28;45275;-76
2022/05/15 01:52:07;;;;;;;;;21.50;20.25;;;;;18.24;46.17;101312.09;5042477;28;45588;-75
2022/05/15 01:54:33;;;;;;;;;13.75;13.25;;;;;18.24;46.32;101308.63;5042432;28;45237;-76
2022/05/15 01:56:59;;;;;;;;;14.00;11.75;;;;;18.26;46.85;101313.81;5041158;28;45124;-75
2022/05/15 01:59:25;;;;;;;;;10.25;9.50;;;;;18.23;47.38;101314.81;5042166;28;47020;-75
2022/05/15 02:01:50;;;;;;;;;10.75;10.25;;;;;18.14;47.02;101305.59;5040805;28;47209;-77
2022/05/15 02:04:15;;;;;;;;;8.00;8.00;;;;;18.13;46.63;101309.16;5042546;28;45376;-76
2022/05/15 02:06:41;;;;;;;;;12.50;7.75;;;;;18.11;46.92;101303.13;5042380;28;45320;-77
2022/05/15 02:09:07;;;;;;;;;7.00;7.00;;;;;18.12;46.98;101303.97;5041992;28;45367;-76
2022/05/15 02:11:34;;;;;;;;;7.00;7.00;;;;;18.11;47.00;101300.50;5042232;28;46289;-78
2022/05/15 02:14:00;;;;;;;;;11.00;9.00;;;;;18.10;47.13;101296.16;5054813;28;45402;-78
2022/05/15 02:16:26;;;;;;;;;10.75;8.00;;;;;18.08;47.39;101281.38;5042214;28;45158;-76
2022/05/15 02:18:51;;;;;;;;;15.25;13.75;;;;;18.04;47.60;101283.31;5041675;28;45214;-77
2022/05/15 02:21:16;;;;;;;;;21.75;16.50;;;;;18.02;47.51;101276.41;5040645;28;48105;-77
2022/05/15 02:23:42;;;;;;;;;14.00;14.00;;;;;17.98;47.50;101280.97;5041861;28;45158;-75
2022/05/15 02:26:07;;;;;;;;;16.25;14.75;;;;;17.93;47.50;101270.69;5040915;28;45258;-76
2022/05/15 02:28:33;;;;;;;;;19.00;17.00;;;;;17.92;47.62;101268.13;5041682;28;45193;-77
2022/05/15 02:30:58;;;;;;;;;19.50;18.75;;;;;17.90;48.05;101268.22;5041611;28;45338;-76
2022/05/15 02:33:23;;;;;;;;;19.75;16.25;;;;;17.88;48.00;101264.81;5041441;28;45260;-77
2022/05/15 02:35:49;;;;;;;;;21.75;18.25;;;;;17.85;48.31;101267.59;5040694;28;45256;-74
2022/05/15 02:38:14;;;;;;;;;15.75;13.75;;;;;17.81;48.32;101267.81;5041608;28;45499;-79
2022/05/15 02:40:40;;;;;;;;;17.50;15.50;;;;;17.79;48.79;101273.13;5041774;28;46434;-79
2022/05/15 02:43:05;;;;;;;;;19.25;16.25;;;;;17.76;48.01;101283.81;5041207;28;45367;-77
2022/05/15 02:45:31;;;;;;;;;16.50;16.25;;;;;17.74;48.91;101280.41;5040257;28;45357;-77
2022/05/15 02:47:56;;;;;;;;;24.00;21.50;;;;;17.69;48.61;101274.53;5041211;28;45587;-78
2022/05/15 02:53:06;;;;;;;;;29.75;24.75;;;;;17.73;48.50;101285.75;5044446;28;45394;-79
2022/05/15 02:55:32;;;;;;;;;19.75;18.00;;;;;17.72;48.47;101284.88;5051087;28;45424;-79
2022/05/15 02:57:58;;;;;;;;;18.75;18.25;;;;;17.70;48.56;101293.78;5041088;28;45462;-77
2022/05/15 03:00:26;;;;;;;;;24.25;21.75;;;;;17.71;48.59;101291.06;5041350;28;45330;-79
2022/05/15 03:02:51;;;;;;;;;12.50;12.00;;;;;17.72;48.62;101289.28;5043540;28;45293;-79
2022/05/15 03:05:19;;;;;;;;;16.00;14.50;;;;;17.73;48.32;101289.22;5049869;28;45368;-78
2022/05/15 03:07:45;;;;;;;;;10.50;10.50;;;;;17.73;48.23;101283.97;5041172;28;45313;-80
2022/05/15 03:10:14;;;;;;;;;12.00;10.75;;;;;17.74;48.26;101288.28;5041088;28;45545;-76
2022/05/15 03:12:40;;;;;;;;;11.00;8.50;;;;;17.73;48.48;101288.38;5040855;28;45292;-77
2022/05/15 03:15:07;;;;;;;;;11.00;8.00;;;;;17.71;48.45;101275.31;5041458;28;45373;-77
2022/05/15 03:17:34;;;;;;;;;6.75;6.75;;;;;17.69;48.83;101277.16;5040823;28;45240;-77
2022/05/15 03:20:00;;;;;;;;;12.00;11.00;;;;;17.63;48.57;101269.53;5039882;28;47366;-78
2022/05/15 03:22:25;;;;;;;;;12.25;11.00;;;;;17.59;48.74;101265.34;5041328;28;45403;-86
2022/05/15 03:24:51;;;;;;;;;10.75;9.75;;;;;17.56;48.58;101260.22;5045069;28;45355;-86
2022/05/15 03:27:16;;;;;;;;;14.25;14.00;;;;;17.52;48.52;101256.91;5042758;28;45296;-85
2022/05/15 03:29:42;;;;;;;;;14.00;13.75;;;;;17.55;48.53;101264.63;5053949;28;46081;-84
2022/05/15 03:32:08;;;;;;;;;13.25;10.25;;;;;17.54;49.15;101259.44;5042338;28;45307;-83
2022/05/15 03:34:33;;;;;;;;;11.25;9.00;;;;;17.54;48.77;101255.06;5041307;28;45434;-87
2022/05/15 03:36:58;;;;;;;;;9.50;8.00;;;;;17.53;48.64;101255.97;5049059;28;45312;-84
2022/05/15 03:39:24;;;;;;;;;10.00;7.00;;;;;17.48;48.95;101244.00;5048892;28;46191;-86
2022/05/15 03:41:50;;;;;;;;;7.50;7.00;;;;;17.48;48.97;101251.88;5042307;28;45340;-86
2022/05/15 03:44:17;;;;;;;;;5.50;4.25;;;;;17.45;48.83;101242.38;5051977;28;45466;-84
2022/05/15 03:46:43;;;;;;;;;5.00;4.25;;;;;17.44;49.03;101242.44;5040107;28;45252;-86
2022/05/15 03:49:09;;;;;;;;;4.25;4.00;;;;;17.41;49.00;101242.56;5049488;28;46069;-80
2022/05/15 03:51:34;;;;;;;;;4.75;4.75;;;;;17.40;48.98;101243.50;5040485;28;45169;-79
2022/05/15 03:54:00;;;;;;;;;5.00;4.00;;;;;17.40;49.02;101254.84;5040837;28;45876;-79
2022/05/15 03:59:12;;;;;;;;;5.00;5.00;;;;;17.34;49.21;101236.75;5040795;28;45445;-85
2022/05/15 04:01:37;;;;;;;;;4.50;4.50;;;;;17.29;49.27;101242.25;5040654;28;45379;-82
2022/05/15 04:04:03;;;;;;;;;4.50;4.00;;;;;17.28;49.43;101234.44;5040322;28;45382;-81
2022/05/15 04:06:29;;;;;;;;;6.25;6.00;;;;;17.23;49.55;101232.03;5040614;28;45310;-80
2022/05/15 04:08:54;;;;;;;;;6.25;6.00;;;;;17.17;49.58;101223.56;5040168;28;46268;-77
2022/05/15 04:11:21;;;;;;;;;5.75;4.00;;;;;17.14;49.50;101231.59;5040419;28;45422;-78
2022/05/15 04:13:46;;;;;;;;;5.00;5.00;;;;;17.10;49.57;101236.16;5040304;28;45212;-79
2022/05/15 04:16:13;;;;;;;;;7.00;6.00;;;;;17.04;49.70;101223.31;5039383;28;45288;-77
2022/05/15 04:18:39;;;;;;;;;9.25;7.25;;;;;17.05;49.77;101237.28;5039373;28;45484;-77
2022/05/15 04:21:04;;;;;;;;;9.00;8.75;;;;;17.01;49.80;101236.56;5039649;28;45258;-75
2022/05/15 04:23:29;;;;;;;;;10.00;8.50;;;;;17.05;49.85;101242.53;5039985;28;45222;-82
2022/05/15 04:25:55;;;;;;;;;10.00;9.00;;;;;17.05;49.59;101246.03;5040081;28;45497;-81
2022/05/15 04:28:22;;;;;;;;;8.75;7.25;;;;;17.06;49.86;101245.09;5039655;28;45454;-81
2022/05/15 04:30:48;;;;;;;;;7.25;7.00;;;;;17.05;49.63;101235.50;5039702;28;45460;-80
2022/05/15 04:33:13;;;;;;;;;7.75;5.50;;;;;17.06;49.76;101234.59;5039923;28;45261;-78
2022/05/15 04:35:38;;;;;;;;;8.75;7.00;;;;;17.02;50.06;101235.66;5039513;28;45582;-81
2022/05/15 04:38:04;;;;;;;;;12.25;9.25;;;;;17.00;50.27;101229.59;5039676;28;46293;-81
2022/05/15 04:40:29;;;;;;;;;10.00;8.75;;;;;16.99;50.11;101227.91;5038678;28;45377;-76
2022/05/15 04:42:54;;;;;;;;;13.25;11.25;;;;;16.97;50.96;101214.84;5038343;28;45371;-78
2022/05/15 04:45:20;;;;;;;;;12.50;12.50;;;;;16.94;50.08;101219.41;5038001;28;45404;-75
2022/05/15 04:47:46;;;;;;;;;11.00;10.75;;;;;16.95;50.06;101221.94;5039270;28;45582;-76
2022/05/15 04:50:13;;;;;;;;;19.25;16.25;;;;;16.91;50.06;101217.75;5039099;28;45678;-77
2022/05/15 04:52:38;;;;;;;;;21.00;21.00;;;;;16.97;50.41;101227.13;5039815;28;45320;-75
2022/05/15 04:55:04;;;;;;;;;10.75;10.75;;;;;16.99;50.53;101231.38;5052583;28;45640;-74
2022/05/15 04:57:29;;;;;;;;;14.00;9.50;;;;;16.98;50.95;101236.69;5037632;28;47046;-77
2022/05/15 04:59:54;;;;;;;;;12.25;8.75;;;;;16.96;50.61;101236.78;5038070;28;45289;-76
2022/05/15 05:02:20;;;;;;;;;10.25;8.75;;;;;16.97;50.87;101242.88;5039262;28;45336;-75
2022/05/15 05:04:45;;;;;;;;;10.00;8.75;;;;;16.98;51.04;101244.56;5038736;28;45490;-75
2022/05/15 05:07:10;;;;;;;;;10.25;7.25;;;;;16.92;50.90;101243.09;5038739;28;45536;-76
2022/05/15 05:09:37;;;;;;;;;11.25;9.00;;;;;16.94;51.07;101237.78;5039172;28;45296;-78
2022/05/15 05:12:03;;;;;;;;;7.75;6.00;;;;;17.01;50.50;101247.06;5039402;28;45392;-76
2022/05/15 05:14:28;;;;;;;;;9.25;9.25;;;;;17.06;50.49;101244.25;5039400;28;45309;-74
2022/05/15 05:16:54;;;;;;;;;11.00;8.00;;;;;17.09;50.57;101247.56;5038708;28;46342;-77
2022/05/15 05:19:19;;;;;;;;;8.25;7.00;;;;;17.16;50.58;101245.50;5037507;28;45418;-78
2022/05/15 05:21:44;;;;;;;;;11.25;9.75;;;;;17.20;50.31;101253.16;5038972;28;45249;-78
2022/05/15 05:24:10;;;;;;;;;13.50;12.25;;;;;17.21;50.13;101248.75;5039051;28;45330;-77
2022/05/15 05:26:35;;;;;;;;;16.00;14.00;;;;;17.26;50.26;101254.66;5038555;28;45501;-77
2022/05/15 05:29:01;;;;;;;;;13.50;13.50;;;;;17.29;50.40;101257.16;5039249;28;45429;-76
2022/05/15 05:31:26;;;;;;;;;10.75;10.75;;;;;17.32;50.36;101260.47;5038746;28;45164;-78
2022/05/15 05:33:52;;;;;;;;;8.50;8.00;;;;;17.36;50.11;101260.31;5039062;28;45207;-78
2022/05/15 05:36:17;;;;;;;;;11.25;9.50;;;;;17.37;50.25;101254.16;5038978;28;45695;-76
2022/05/15 05:38:42;;;;;;;;;8.75;8.25;;;;;17.39;50.11;101258.41;5039021;28;45209;-78
2022/05/15 05:41:08;;;;;;;;;11.25;10.00;;;;;17.39;50.20;101254.94;5039168;28;45310;-76
2022/05/15 05:43:33;;;;;;;;;12.50;12.00;;;;;17.41;50.19;101258.31;5038860;28;45362;-77
2022/05/15 05:45:59;;;;;;;;;12.75;12.25;;;;;17.43;50.14;101265.25;5051284;28;46353;-79
2022/05/15 05:48:25;;;;;;;;;16.00;14.00;;;;;17.43;50.14;101253.88;5038891;28;45632;-78
2022/05/15 05:50:50;;;;;;;;;18.00;15.75;;;;;17.44;50.08;101252.97;5038594;28;45285;-75
2022/05/15 05:53:16;;;;;;;;;13.50;13.00;;;;;17.47;49.55;101256.28;5038757;28;45303;-78
2022/05/15 05:55:42;;;;;;;;;19.25;18.25;;;;;17.51;49.89;101251.72;5038914;28;45477;-75
2022/05/15 05:58:07;;;;;;;;;13.75;11.50;;;;;17.53;49.89;101252.50;5038468;28;45497;-78
2022/05/15 06:00:37;;;;;;;;;17.25;15.50;;;;;17.58;49.93;101248.72;5038829;28;45572;-73
2022/05/15 06:05:47;;;;;;;;;13.50;12.00;;;;;17.77;50.00;101245.22;5038589;28;45877;-73
2022/05/15 06:08:13;;;;;;;;;12.00;11.00;;;;;17.86;49.99;101250.91;5038832;28;45237;-74
2022/05/15 06:10:40;;;;;;;;;14.00;12.50;;;;;17.94;49.66;101248.72;5041730;28;45229;-75
2022/05/15 06:13:05;;;;;;;;;17.50;17.50;;;;;18.03;49.62;101250.06;5052145;28;45296;-76
2022/05/15 06:15:31;;;;;;;;;24.00;21.75;;;;;18.11;49.50;101245.25;5049276;28;45412;-77
2022/05/15 06:18:02;;;;;;;;;18.75;16.00;;;;;18.19;49.37;101244.84;5050827;28;45284;-73
2022/05/15 06:20:28;;;;;;;;;17.75;17.00;;;;;18.26;49.44;101251.50;5048594;28;45447;-74
2022/05/15 06:22:53;;;;;;;;;14.75;14.50;;;;;18.36;49.08;101251.88;5052509;28;45422;-73
2022/05/15 06:25:19;;;;;;;;;17.00;13.75;;;;;18.43;49.11;101250.66;5048240;28;46392;-73
2022/05/15 06:27:44;;;;;;;;;15.25;13.00;;;;;18.50;48.67;101244.13;5040562;28;45345;-73
2022/05/15 06:30:12;;;;;;;;;14.75;11.25;;;;;18.61;48.90;101243.53;5042023;28;45216;-73
2022/05/15 06:32:39;;;;;;;;;12.00;10.50;;;;;18.71;48.66;101248.28;5040496;28;45356;-70
2022/05/15 06:35:05;;;;;;;;;17.25;15.75;;;;;18.79;48.77;101246.09;5041175;28;45565;-71
2022/05/15 06:37:31;;;;;;;;;13.50;13.00;;;;;18.91;48.61;101239.31;5048813;28;45746;-78
2022/05/15 06:39:57;;;;;;;;;10.25;10.00;;;;;19.03;48.29;101251.00;5050425;28;45233;-75
2022/05/15 06:42:22;;;;;;;;;5.50;5.50;;;;;19.10;48.59;101250.56;5050838;28;45257;-72
2022/05/15 06:44:48;;;;;;;;;12.50;9.00;;;;;19.22;48.31;101258.69;5047006;28;46344;-72
2022/05/15 06:47:14;;;;;;;;;8.50;8.50;;;;;19.30;47.69;101253.88;5051773;28;45311;-73
2022/05/15 06:49:39;;;;;;;;;10.00;10.00;;;;;19.30;47.75;101251.25;5049491;28;45425;-76
2022/05/15 06:52:05;;;;;;;;;10.50;10.50;;;;;19.29;47.49;101250.38;5052226;28;46236;-73
2022/05/15 06:54:30;;;;;;;;;12.00;10.25;;;;;19.26;47.54;101255.00;5063401;28;48343;-75
2022/05/15 06:59:40;;;;;;;;;8.75;8.75;;;;;19.35;47.68;101259.72;5039751;28;45502;-75
2022/05/15 07:02:06;;;;;;;;;11.25;7.00;;;;;19.40;47.55;101253.25;5035748;28;45612;-80
2022/05/15 07:04:31;;;;;;;;;9.00;7.00;;;;;19.48;47.12;101254.63;5038838;28;46547;-80
2022/05/15 07:06:56;;;;;;;;;7.75;7.50;;;;;19.55;47.56;101242.81;5041090;28;45338;-72
2022/05/15 07:09:22;;;;;;;;;8.00;7.00;;;;;19.69;47.12;101249.03;5041603;28;45325;-73
2022/05/15 07:11:47;;;;;;;;;11.25;8.25;;;;;19.84;48.01;101243.81;5040938;28;45326;-74
2022/05/15 07:14:12;;;;;;;;;11.25;8.75;;;;;19.96;46.94;101240.44;5040655;28;45445;-73
2022/05/15 07:16:39;;;;;;;;;9.00;6.75;;;;;20.10;46.42;101232.56;5039989;28;45384;-68
2022/05/15 07:19:04;;;;;;;;;11.75;7.25;;;;;20.27;46.31;101215.72;5038382;28;45404;-78
2022/05/15 07:21:30;;;;;;;;;11.25;6.50;;;;;20.44;46.19;101220.03;5040132;28;45376;-75
2022/05/15 07:23:55;;;;;;;;;5.00;5.00;;;;;20.55;45.81;101210.50;5041052;28;46441;-74
2022/05/15 07:26:20;;;;;;;;;7.75;7.75;;;;;20.72;45.57;101209.44;5039451;28;45904;-73
2022/05/15 07:28:50;;;;;;;;;7.25;7.25;;;;;20.89;46.53;101203.97;5038754;28;46377;-75
2022/05/15 07:31:18;;;;;;;;;6.00;6.00;;;;;21.04;45.70;101207.44;5039567;28;46121;-74
2022/05/15 07:33:44;;;;;;;;;6.75;6.75;;;;;21.12;45.76;101197.19;5039482;28;46185;-74
2022/05/15 07:36:10;;;;;;;;;8.50;7.50;;;;;21.21;46.41;101191.31;5040188;28;45468;-77
2022/05/15 07:38:36;;;;;;;;;6.75;5.00;;;;;21.35;45.58;101189.59;5053466;28;45561;-76
2022/05/15 07:41:01;;;;;;;;;7.00;6.75;;;;;21.44;44.46;101192.50;5040529;28;45447;-79
2022/05/15 07:43:27;;;;;;;;;6.00;6.00;;;;;21.47;43.69;101192.31;5040924;28;46287;-75
2022/05/15 07:45:52;;;;;;;;;9.00;7.50;;;;;21.50;44.05;101197.41;5040523;28;45202;-78
2022/05/15 07:48:18;;;;;;;;;7.75;7.00;;;;;21.63;43.66;101201.88;5040523;28;45313;-75
2022/05/15 07:50:43;;;;;;;;;7.25;4.00;;;;;21.80;43.68;101198.94;5040258;28;45339;-75
2022/05/15 07:53:09;;;;;;;;;7.00;7.00;;;;;21.94;43.53;101198.00;5040806;28;45423;-80
2022/05/15 07:55:34;;;;;;;;;5.50;5.50;;;;;22.08;43.08;101184.72;5050955;28;45266;-76
2022/05/15 07:58:00;;;;;;;;;6.00;5.75;;;;;22.25;42.86;101179.13;5043416;28;45299;-77
2022/05/15 08:00:26;;;;;;;;;6.75;5.75;;;;;22.37;42.27;101166.81;5019360;28;45746;-75
2022/05/15 08:03:04;;;;;;;;;5.75;4.25;;;;;22.54;42.99;101166.47;5037634;28;46610;-77
2022/05/15 08:08:13;;;;;;;;;5.75;5.00;;;;;22.78;41.85;101172.69;5040487;28;45379;-79
2022/05/15 08:10:41;;;;;;;;;5.00;5.00;;;;;22.96;41.70;101175.00;5040215;28;45441;-73
2022/05/15 08:13:08;;;;;;;;;5.50;4.75;;;;;23.15;40.57;101164.75;5040271;28;46449;-74
2022/05/15 08:15:36;;;;;;;;;5.75;5.25;;;;;23.29;41.13;101163.75;5039836;28;45806;-75
2022/05/15 08:23:33;;;;;;;;;4.00;4.00;;;;;23.45;41.02;101166.09;5040613;28;45377;-79
2022/05/15 08:23:37;;;;;;;;;7.00;5.50;;;;;23.66;39.75;101140.63;5039813;28;45481;-74
2022/05/15 08:26:06;;;;;;;;;4.25;4.25;;;;;23.76;39.39;101136.31;5040868;28;45560;-75
2022/05/15 08:28:33;;;;;;;;;3.25;3.25;;;;;23.86;38.64;101133.81;5038537;28;45337;-75
2022/05/15 08:30:59;;;;;;;;;4.00;4.00;;;;;23.95;39.64;101128.63;5038719;28;45479;-81
2022/05/15 08:33:26;;;;;;;;;4.25;3.75;;;;;24.03;39.19;101125.38;5052026;28;45347;-71
2022/05/15 08:35:51;;;;;;;;;3.00;3.00;;;;;24.05;38.58;101133.22;5039682;28;45309;-74
2022/05/15 08:38:17;;;;;;;;;4.75;4.25;;;;;24.06;37.75;101134.94;5039941;28;45386;-77
2022/05/15 08:40:48;;;;;;;;;4.50;4.50;;;;;24.11;37.42;101135.41;5039958;28;45376;-77
2022/05/15 08:43:18;;;;;;;;;5.00;4.25;;;;;24.09;37.85;101126.72;5043003;28;46579;-74
2022/05/15 08:46:02;;;;;;;;;6.00;5.00;;;;;24.06;38.20;101119.00;5043698;28;46270;-69
2022/05/15 08:48:31;;;;;;;;;3.50;3.50;;;;;24.03;37.40;101114.78;5040030;28;45173;-73
2022/05/15 08:50:59;;;;;;;;;4.00;4.00;;;;;24.17;37.05;101113.66;5039239;28;45431;-68
2022/05/15 08:53:31;;;;;;;;;5.00;4.00;;;;;24.36;37.62;101113.09;5039378;28;45422;-67
2022/05/15 08:55:59;;;;;;;;;3.75;3.25;;;;;24.49;36.72;101108.50;5039459;28;45296;-71
2022/05/15 08:58:39;;;;;;;;;4.00;3.25;;;;;24.62;36.42;101111.00;5038173;28;45388;-69
2022/05/15 09:01:07;;;;;;;;;5.50;5.00;;;;;24.73;36.65;101103.03;5039466;28;45353;-81
2022/05/15 09:03:35;;;;;;;;;3.50;3.00;;;;;24.86;35.75;101114.34;5040118;28;46037;-82
2022/05/15 09:06:16;;;;;;;;;4.25;4.25;;;;;24.98;35.10;101110.69;5039366;28;45387;-81
2022/05/15 09:09:10;;;;;;;;;3.75;3.75;;;;;25.07;36.16;101103.81;5039616;28;45431;-74
2022/05/15 09:11:55;;;;;;;;;4.50;3.00;;;;;25.20;35.68;101106.28;5029428;28;45210;-77
2022/05/15 09:14:30;;;;;;;;;6.25;5.75;;;;;25.25;36.37;101104.94;5038037;28;47947;-70
2022/05/15 09:17:04;;;;;;;;;4.25;4.00;;;;;25.37;35.86;101105.72;5038715;28;45504;-68
2022/05/15 09:19:29;;;;;;;;;5.00;4.00;;;;;25.40;34.93;101111.63;5039465;28;45504;-68
2022/05/15 09:21:57;;;;;;;;;5.00;4.00;;;;;25.43;35.18;101107.88;5039247;28;45287;-69
2022/05/15 09:24:32;;;;;;;;;1.75;1.25;;;;;25.50;35.30;101111.72;5047889;28;46419;-68
2022/05/15 09:27:15;;;;;;;;;7.00;4.00;;;;;25.54;35.07;101104.31;5042144;28;45301;-69
2022/05/15 09:29:40;;;;;;;;;5.00;4.00;;;;;25.49;34.56;101091.41;5039271;28;45280;-70
2022/05/15 09:32:25;;;;;;;;;4.00;2.75;;;;;25.59;33.30;101096.75;5038817;28;46035;-70
2022/05/15 09:34:50;;;;;;;;;4.25;4.00;;;;;25.66;34.40;101096.13;5039846;28;45460;-68
2022/05/15 09:40:12;;;;;;;;;3.50;2.75;;;;;25.77;33.22;101084.56;5039886;28;45438;-71
2022/05/15 09:45:36;;;;;;;;;4.25;4.25;;;;;25.85;33.28;101081.28;5039624;28;45745;-70
2022/05/15 09:48:05;;;;;;;;;4.50;4.25;;;;;25.93;33.31;101084.09;5041988;28;45222;-70
2022/05/15 09:50:40;;;;;;;;;3.50;3.50;;;;;26.00;33.02;101069.28;5042435;28;45463;-68
2022/05/15 09:53:14;;;;;;;;;4.75;3.75;;;;;26.07;32.44;101073.09;5042462;28;45442;-68
2022/05/15 09:55:40;;;;;;;;;5.00;3.25;;;;;26.21;32.63;101082.53;5042588;28;46379;-67
2022/05/15 09:58:18;;;;;;;;;3.75;2.50;;;;;26.31;32.75;101076.28;5042094;28;45443;-71
2022/05/15 10:00:44;;;;;;;;;5.75;5.00;;;;;26.34;32.67;101072.50;5041081;28;45278;-69
2022/05/15 10:03:20;;;;;;;;;3.75;3.75;;;;;26.34;31.90;101057.38;5042393;28;45331;-70
2022/05/15 10:05:57;;;;;;;;;3.00;3.00;;;;;26.50;33.28;101064.00;5041550;28;45254;-70
2022/05/15 10:08:26;;;;;;;;;5.75;4.75;;;;;26.50;32.71;101053.34;5040178;28;45466;-72
2022/05/15 10:11:01;;;;;;;;;8.50;8.50;;;;;26.44;31.98;101056.56;5039551;28;45348;-68
2022/05/15 10:13:26;;;;;;;;;4.75;3.00;;;;;26.34;31.97;101056.50;5042063;28;45470;-71
2022/05/15 10:15:57;;;;;;;;;7.25;5.50;;;;;26.32;32.29;101043.31;5041634;28;46279;-69
2022/05/15 10:18:27;;;;;;;;;4.00;3.00;;;;;26.35;31.32;101037.75;5040686;28;45554;-69
2022/05/15 10:20:54;;;;;;;;;4.00;4.00;;;;;26.34;30.96;101043.19;5041698;28;45486;-67
2022/05/15 10:23:25;;;;;;;;;6.50;6.00;;;;;26.43;30.22;101038.88;5040870;28;45654;-66
2022/05/15 10:26:00;;;;;;;;;3.75;2.50;;;;;26.50;31.28;101040.88;5042283;28;46659;-67
2022/05/15 10:28:30;;;;;;;;;2.75;2.25;;;;;26.55;30.21;101037.78;5044981;28;45343;-66
2022/05/15 10:31:04;;;;;;;;;2.50;2.50;;;;;26.68;30.14;101025.88;5050706;28;45369;-66
2022/05/15 10:33:38;;;;;;;;;4.50;2.00;;;;;26.85;29.97;101021.69;5045332;28;45462;-66
2022/05/15 10:36:16;;;;;;;;;4.25;4.25;;;;;26.97;33.00;101030.38;5051351;28;46363;-65
2022/05/15 10:38:57;;;;;;;;;4.25;4.25;;;;;27.04;30.30;101009.34;5053314;28;45431;-68
2022/05/15 10:41:56;;;;;;;;;3.00;3.00;;;;;27.09;30.44;101015.09;5045691;28;45585;-67
2022/05/15 10:44:36;;;;;;;;;4.25;3.25;;;;;27.11;30.14;101002.44;5050357;28;45608;-68
2022/05/15 10:47:09;;;;;;;;;4.00;3.00;;;;;27.25;30.50;101012.69;5051600;28;46567;-67
2022/05/15 10:50:03;;;;;;;;;2.00;2.00;;;;;27.31;30.04;101009.44;5040182;28;45931;-69
2022/05/15 10:52:49;;;;;;;;;2.75;2.75;;;;;27.27;29.60;101010.72;5050268;28;45500;-69
2022/05/15 10:58:24;;;;;;;;;3.00;3.00;;;;;27.45;30.13;101006.31;5042203;28;45517;-68
2022/05/15 11:00:57;;;;;;;;;5.75;4.25;;;;;27.51;30.29;100997.72;5043713;28;45739;-68
2022/05/15 11:03:48;;;;;;;;;1.75;1.75;;;;;27.71;30.22;100987.00;5039843;28;45424;-68
2022/05/15 11:06:31;;;;;;;;;3.50;3.00;;;;;27.84;29.78;101000.88;5042471;28;45483;-70
2022/05/15 11:09:24;;;;;;;;;3.00;3.00;;;;;27.91;29.61;100996.63;5037376;28;48527;-69
2022/05/15 11:12:22;;;;;;;;;3.50;3.00;;;;;27.90;29.25;100994.09;5042392;28;45343;-65
2022/05/15 11:15:05;;;;;;;;;4.75;4.75;;;;;27.91;30.61;100991.28;5038462;28;45296;-65
2022/05/15 11:17:52;;;;;;;;;3.00;3.00;;;;;27.88;30.56;100991.56;5038968;28;45355;-67
2022/05/15 11:20:25;;;;;;;;;3.25;3.25;;;;;27.89;29.50;100974.56;5039400;28;45483;-68
2022/05/15 11:23:17;;;;;;;;;6.75;4.75;;;;;27.99;29.79;100982.50;5046274;28;45323;-68
2022/05/15 11:25:52;;;;;;;;;4.75;3.50;;;;;28.04;29.08;100965.06;5044243;28;45481;-67
2022/05/15 11:28:50;;;;;;;;;8.00;5.25;;;;;28.06;29.87;100973.75;5039178;28;45558;-68
2022/05/15 11:31:20;;;;;;;;;4.75;3.25;;;;;28.09;28.93;100965.44;5038908;28;45675;-67
2022/05/15 11:33:56;;;;;;;;;3.50;3.00;;;;;28.22;29.58;100969.56;5049235;28;45535;-68
2022/05/15 11:36:21;;;;;;;;;6.25;6.25;;;;;28.31;30.35;100966.03;5048738;28;45281;-67
2022/05/15 11:38:59;;;;;;;;;8.25;7.75;;;;;28.37;30.13;100968.94;5048436;28;45373;-67
2022/05/15 11:41:36;;;;;;;;;6.25;4.00;;;;;28.40;28.46;100955.25;5048814;28;46472;-66
2022/05/15 11:44:07;;;;;;;;;5.00;5.00;;;;;28.39;28.89;100950.91;5048887;28;45445;-66
2022/05/15 11:46:45;;;;;;;;;19.50;13.50;;;;;28.48;32.29;100957.19;5043477;28;46372;-67
2022/05/15 11:49:23;;;;;;;;;4.50;2.25;;;;;28.50;32.03;100955.19;5039921;28;45343;-70
2022/05/15 11:52:03;;;;;;;;;6.75;4.00;;;;;28.60;29.76;100947.91;5039963;28;46495;-69